Time;durP1;ratioP1;P1;durP2;ratioP2;P2;SDS_P1;SDS_P2;PMS_P1;PMS_P2;Temp;Humidity;BMP_temperature;BMP_pressure;BME280_temperature;BME280_humidity;BME280_pressure;Samples;Min_cycle;Max_cycle;Signal;HPM_P1;HPM_P2
2024/01/17 00:00:45;;;;;;;7.28;4.22;;;;;;;-3.21;100.00;99956.69;4965215;28;20034;-87
2024/01/17 00:03:12;;;;;;;7.07;4.18;;;;;;;-3.19;100.00;99959.31;4991235;28;20038;-87
2024/01/17 00:05:40;;;;;;;9.75;4.68;;;;;;;-3.19;100.00;99945.91;4975289;28;20030;-87
2024/01/17 00:08:06;;;;;;;7.35;3.80;;;;;;;-3.22;100.00;99943.34;4991459;28;20027;-87
2024/01/17 00:10:34;;;;;;;7.10;3.85;;;;;;;-3.29;100.00;99939.16;4975137;28;20482;-87
2024/01/17 00:13:01;;;;;;;10.27;4.13;;;;;;;-3.32;100.00;99940.13;4960306;28;20060;-87
2024/01/17 00:15:27;;;;;;;7.13;4.28;;;;;;;-3.32;100.00;99932.97;4975793;28;20041;-87
2024/01/17 00:17:53;;;;;;;8.00;4.03;;;;;;;-3.26;100.00;99926.53;4975625;28;20545;-87
2024/01/17 00:20:19;;;;;;;6.43;3.90;;;;;;;-3.30;100.00;99927.56;4958738;28;20038;-87
2024/01/17 00:22:45;;;;;;;11.32;4.45;;;;;;;-3.34;100.00;99924.13;4959435;28;20037;-87
2024/01/17 00:25:11;;;;;;;5.88;3.75;;;;;;;-3.38;100.00;99924.31;4975946;28;20049;-88
2024/01/17 00:27:38;;;;;;;7.45;3.78;;;;;;;-3.45;100.00;99931.69;4993303;28;20514;-88
2024/01/17 00:30:06;;;;;;;7.72;4.53;;;;;;;-3.35;100.00;99925.06;4959967;28;20057;-88
2024/01/17 00:32:34;;;;;;;8.73;4.82;;;;;;;-3.35;100.00;99913.50;4976045;28;20038;-87
2024/01/17 00:35:02;;;;;;;8.23;4.15;;;;;;;-3.32;100.00;99910.69;4975991;28;20112;-87
2024/01/17 00:37:27;;;;;;;7.20;4.20;;;;;;;-3.38;100.00;99916.28;4975974;28;20030;-87
2024/01/17 00:39:55;;;;;;;9.68;4.70;;;;;;;-3.27;100.00;99919.44;4959904;28;20424;-88
2024/01/17 00:42:20;;;;;;;6.07;4.53;;;;;;;-3.25;100.00;99911.34;4959974;28;20046;-88
2024/01/17 00:44:46;;;;;;;8.32;4.65;;;;;;;-3.31;100.00;99912.47;4959960;28;20463;-88
2024/01/17 00:47:12;;;;;;;9.95;4.60;;;;;;;-3.34;100.00;99899.19;4960248;28;20113;-89
2024/01/17 00:49:39;;;;;;;9.15;4.68;;;;;;;-3.38;100.00;99901.13;4975077;28;20030;-88
2024/01/17 00:52:05;;;;;;;6.88;4.57;;;;;;;-3.42;100.00;99896.78;4975496;28;20026;-87
2024/01/17 00:54:31;;;;;;;6.10;4.80;;;;;;;-3.42;100.00;99891.44;4991530;28;20033;-87
2024/01/17 00:57:00;;;;;;;11.40;4.97;;;;;;;-3.54;100.00;99884.75;4959217;28;20121;-88
2024/01/17 00:59:25;;;;;;;8.00;4.68;;;;;;;-3.60;100.00;99868.06;4991209;28;20030;-88
2024/01/17 01:01:51;;;;;;;9.73;4.80;;;;;;;-3.60;100.00;99860.88;4958725;28;20030;-88
2024/01/17 01:04:16;;;;;;;6.65;4.25;;;;;;;-3.47;100.00;99857.78;4964392;28;20496;-90
2024/01/17 01:06:42;;;;;;;8.20;4.93;;;;;;;-3.59;100.00;99851.94;4970880;28;20117;-91
2024/01/17 01:09:09;;;;;;;5.95;4.57;;;;;;;-3.52;100.00;99840.06;4986539;28;20026;-90
2024/01/17 01:11:36;;;;;;;8.35;5.22;;;;;;;-3.54;100.00;99841.94;5003814;28;20034;-90
2024/01/17 01:14:02;;;;;;;6.30;4.47;;;;;;;-3.50;100.00;99848.03;5000292;28;20100;-90
2024/01/17 01:16:29;;;;;;;8.70;5.90;;;;;;;-3.55;100.00;99840.19;4959246;28;20046;-90
2024/01/17 01:18:54;;;;;;;9.07;6.30;;;;;;;-3.46;100.00;99833.63;4959584;28;20102;-91
2024/01/17 01:21:20;;;;;;;14.05;7.72;;;;;;;-3.59;100.00;99835.91;4992284;28;20113;-91
2024/01/17 01:23:48;;;;;;;12.90;9.23;;;;;;;-3.62;100.00;99832.44;4959853;28;20050;-92
2024/01/17 01:26:16;;;;;;;12.20;8.90;;;;;;;-3.49;100.00;99827.50;4992016;28;20117;-92
2024/01/17 01:28:41;;;;;;;14.23;9.27;;;;;;;-3.47;100.00;99820.31;4960317;28;20038;-92
2024/01/17 01:31:07;;;;;;;13.80;8.18;;;;;;;-3.45;100.00;99818.44;4983155;28;20041;-91
2024/01/17 01:33:33;;;;;;;14.65;8.35;;;;;;;-3.48;100.00;99818.56;4998705;28;20030;-91
2024/01/17 01:35:58;;;;;;;13.52;7.07;;;;;;;-3.48;100.00;99813.22;5000483;28;20030;-92
2024/01/17 01:38:23;;;;;;;8.63;6.35;;;;;;;-3.43;100.00;99806.72;4974406;28;20062;-91
2024/01/17 01:40:49;;;;;;;12.82;6.10;;;;;;;-3.43;100.00;99805.88;4966887;28;20465;-91
2024/01/17 01:43:23;;;;;;;8.40;5.55;;;;;;;-3.47;100.00;99810.47;4965652;28;20026;-91
2024/01/17 01:46:03;;;;;;;10.05;6.20;;;;;;;-3.48;100.00;99803.38;4982057;28;20039;-92
2024/01/17 01:48:30;;;;;;;9.80;5.72;;;;;;;-3.50;100.00;99799.88;5006095;28;20079;-91
2024/01/17 01:50:57;;;;;;;11.63;5.72;;;;;;;-3.47;100.00;99805.13;4968220;28;20075;-91
2024/01/17 01:53:23;;;;;;;11.63;6.20;;;;;;;-3.49;100.00;99800.75;4989417;28;20083;-91
2024/01/17 01:55:48;;;;;;;8.18;5.30;;;;;;;-3.48;100.00;99814.06;4977059;28;20042;-91
2024/01/17 01:58:15;;;;;;;9.48;5.72;;;;;;;-3.44;100.00;99809.47;4978821;28;20117;-91
2024/01/17 02:00:40;;;;;;;13.02;5.75;;;;;;;-3.38;100.00;99801.22;4978458;28;20134;-91
2024/01/17 02:03:06;;;;;;;8.88;4.78;;;;;;;-3.46;100.00;99795.28;4977645;28;20109;-91
2024/01/17 02:05:31;;;;;;;10.13;5.68;;;;;;;-3.43;100.00;99785.34;4977892;28;20049;-91
2024/01/17 02:07:58;;;;;;;7.57;4.75;;;;;;;-3.37;100.00;99789.59;4961954;28;20030;-91
2024/01/17 02:10:24;;;;;;;5.80;5.15;;;;;;;-3.42;100.00;99778.19;4961938;28;20079;-91
2024/01/17 02:12:49;;;;;;;8.77;4.75;;;;;;;-3.36;100.00;99783.28;4962048;28;20027;-91
2024/01/17 02:15:16;;;;;;;8.25;4.57;;;;;;;-3.40;100.00;99776.31;4994753;28;20026;-91
2024/01/17 02:17:43;;;;;;;13.48;4.85;;;;;;;-3.42;100.00;99772.84;4961979;28;20087;-90
2024/01/17 02:20:09;;;;;;;8.32;4.80;;;;;;;-3.40;100.00;99769.16;4962076;28;20057;-91
2024/01/17 02:22:35;;;;;;;8.23;4.97;;;;;;;-3.33;100.00;99761.75;4962234;28;20484;-91
2024/01/17 02:25:04;;;;;;;8.38;4.35;;;;;;;-3.40;100.00;99763.81;4962379;28;20038;-91
2024/01/17 02:27:30;;;;;;;9.30;5.18;;;;;;;-3.37;100.00;99757.47;4977795;28;20073;-91
2024/01/17 02:29:56;;;;;;;4.63;3.90;;;;;;;-3.45;100.00;99760.44;4994380;28;20468;-91
2024/01/17 02:32:22;;;;;;;7.75;4.50;;;;;;;-3.43;100.00;99750.53;4962050;28;20121;-91
2024/01/17 02:34:48;;;;;;;9.00;4.03;;;;;;;-3.38;100.00;99740.56;4978188;28;20054;-90
2024/01/17 02:37:14;;;;;;;8.32;4.35;;;;;;;-3.44;100.00;99734.56;4963069;28;20184;-91
2024/01/17 02:39:39;;;;;;;7.65;4.78;;;;;;;-3.44;100.00;99734.56;4978855;28;20050;-92
2024/01/17 02:42:05;;;;;;;5.95;4.18;;;;;;;-3.44;100.00;99734.56;4977381;28;20034;-91
2024/01/17 02:44:30;;;;;;;9.50;4.70;;;;;;;-3.38;100.00;99719.16;4962427;28;20049;-91
2024/01/17 02:46:56;;;;;;;5.65;3.85;;;;;;;-3.39;100.00;99717.41;4978929;28;20030;-91
2024/01/17 02:49:22;;;;;;;6.20;4.28;;;;;;;-3.45;100.00;99716.78;4977791;28;20038;-91
2024/01/17 02:51:47;;;;;;;6.15;4.50;;;;;;;-3.44;100.00;99703.34;4977094;28;20031;-90
2024/01/17 02:54:13;;;;;;;5.60;4.57;;;;;;;-3.44;100.00;99705.13;4977135;28;20472;-90
2024/01/17 02:56:39;;;;;;;11.23;4.72;;;;;;;-3.37;100.00;99699.47;4977270;28;20038;-91
2024/01/17 02:59:04;;;;;;;6.43;4.15;;;;;;;-3.48;100.00;99701.69;4993382;28;20396;-91
2024/01/17 03:01:29;;;;;;;6.95;4.72;;;;;;;-3.47;100.00;99690.09;4961156;28;20129;-91
2024/01/17 03:03:55;;;;;;;9.38;4.82;;;;;;;-3.46;100.00;99689.16;4961525;28;20027;-90
2024/01/17 03:06:20;;;;;;;6.75;4.55;;;;;;;-3.55;100.00;99692.19;4961375;28;20034;-90
2024/01/17 03:08:46;;;;;;;7.85;4.93;;;;;;;-3.51;100.00;99691.13;4961391;28;20018;-91
2024/01/17 03:11:11;;;;;;;8.57;4.72;;;;;;;-3.52;100.00;99684.06;4964741;28;20372;-91
2024/01/17 03:13:37;;;;;;;9.40;5.13;;;;;;;-3.42;100.00;99689.91;4965073;28;20098;-89
2024/01/17 03:16:02;;;;;;;6.35;4.45;;;;;;;-3.46;100.00;99677.56;5000738;28;20061;-90
2024/01/17 03:18:29;;;;;;;6.22;4.63;;;;;;;-3.48;100.00;99674.09;4983144;28;20053;-90
2024/01/17 03:20:57;;;;;;;6.15;4.35;;;;;;;-3.53;100.00;99661.75;4977615;28;20064;-90
2024/01/17 03:23:22;;;;;;;7.47;4.20;;;;;;;-3.59;100.00;99655.78;4978832;28;20080;-87
2024/01/17 03:25:49;;;;;;;10.00;4.18;;;;;;;-3.55;100.00;99652.06;4976325;28;20034;-88
2024/01/17 03:28:14;;;;;;;7.07;4.43;;;;;;;-3.51;100.00;99651.00;4963087;28;20018;-89
2024/01/17 03:30:40;;;;;;;7.93;4.38;;;;;;;-3.59;100.00;99645.97;4979594;28;20085;-90
2024/01/17 03:33:05;;;;;;;6.50;4.45;;;;;;;-3.59;100.00;99631.72;4964693;28;20038;-89
2024/01/17 03:35:31;;;;;;;4.88;3.88;;;;;;;-3.55;100.00;99636.88;4965529;28;20152;-88
2024/01/17 03:37:57;;;;;;;4.72;3.70;;;;;;;-3.61;100.00;99630.91;4960955;28;20175;-88
2024/01/17 03:40:23;;;;;;;6.40;4.13;;;;;;;-3.70;100.00;99626.81;4976608;28;20053;-88
2024/01/17 03:42:48;;;;;;;8.68;3.72;;;;;;;-3.66;100.00;99620.41;4992884;28;20034;-88
2024/01/17 03:45:14;;;;;;;6.72;3.85;;;;;;;-3.67;100.00;99613.31;4976352;28;20404;-87
2024/01/17 03:47:39;;;;;;;4.88;3.95;;;;;;;-3.70;100.00;99610.78;4977090;28;20384;-88
2024/01/17 03:50:07;;;;;;;7.00;4.53;;;;;;;-3.68;100.00;99608.91;4960398;28;20038;-88
2024/01/17 03:52:32;;;;;;;7.00;4.18;;;;;;;-3.63;100.00;99593.53;4962641;28;20026;-88
2024/01/17 03:54:58;;;;;;;3.90;3.47;;;;;;;-3.75;100.00;99575.34;4961423;28;20045;-86
2024/01/17 03:57:23;;;;;;;8.15;4.25;;;;;;;-3.57;100.00;99587.06;4975469;28;20053;-86
2024/01/17 03:59:48;;;;;;;4.40;3.55;;;;;;;-3.53;100.00;99578.81;4958980;28;20488;-87
2024/01/17 04:02:14;;;;;;;9.32;4.10;;;;;;;-3.53;100.00;99578.81;4958716;28;20376;-86
2024/01/17 04:04:40;;;;;;;8.27;3.40;;;;;;;-3.46;100.00;99568.78;4990986;28;20038;-86
2024/01/17 04:07:06;;;;;;;6.85;4.32;;;;;;;-3.54;100.00;99557.53;4974705;28;20592;-85
2024/01/17 04:09:32;;;;;;;10.80;4.55;;;;;;;-3.56;100.00;99562.94;4958764;28;20148;-86
2024/01/17 04:11:57;;;;;;;4.68;3.50;;;;;;;-3.45;100.00;99546.41;4958900;28;20422;-86
2024/01/17 04:14:23;;;;;;;5.63;3.90;;;;;;;-3.51;100.00;99547.56;4958624;28;20030;-86
2024/01/17 04:16:48;;;;;;;8.57;4.28;;;;;;;-3.67;100.00;99533.09;4974751;28;20117;-87
2024/01/17 04:19:13;;;;;;;4.95;3.22;;;;;;;-3.55;100.00;99529.03;4958784;28;20030;-87
2024/01/17 04:21:39;;;;;;;4.07;3.35;;;;;;;-3.55;100.00;99519.19;4959239;28;20066;-86
2024/01/17 04:24:05;;;;;;;10.02;3.83;;;;;;;-3.54;100.00;99504.03;4959000;28;20130;-89
2024/01/17 04:26:30;;;;;;;4.43;3.22;;;;;;;-3.59;100.00;99490.84;4959050;28;20214;-89
2024/01/17 04:28:57;;;;;;;5.90;3.70;;;;;;;-3.60;100.00;99486.41;4974894;28;20027;-90
2024/01/17 04:31:30;;;;;;;5.03;3.90;;;;;;;-3.57;100.00;99488.09;4959832;28;20072;-89
2024/01/17 04:33:58;;;;;;;6.75;3.58;;;;;;;-3.70;100.00;99475.25;4975188;28;20059;-89
2024/01/17 04:36:28;;;;;;;3.78;3.42;;;;;;;-3.65;100.00;99480.41;4975544;28;20041;-90
2024/01/17 04:38:54;;;;;;;5.10;3.53;;;;;;;-3.67;100.00;99478.72;4991267;28;20434;-89
2024/01/17 04:41:20;;;;;;;6.80;3.70;;;;;;;-3.71;100.00;99473.50;4959166;28;20125;-89
2024/01/17 04:43:46;;;;;;;7.57;3.45;;;;;;;-3.81;100.00;99463.28;4975304;28;20102;-89
2024/01/17 04:46:13;;;;;;;6.30;3.50;;;;;;;-3.83;100.00;99451.78;4991389;28;20475;-89
2024/01/17 04:48:43;;;;;;;9.45;4.07;;;;;;;-3.79;100.00;99448.03;4991884;28;20120;-87
2024/01/17 04:51:10;;;;;;;6.25;4.00;;;;;;;-3.80;100.00;99440.97;4977823;28;20030;-89
2024/01/17 04:53:37;;;;;;;6.28;3.67;;;;;;;-3.75;100.00;99436.28;4992842;28;20082;-89
2024/01/17 04:56:06;;;;;;;7.25;4.10;;;;;;;-3.73;100.00;99431.72;4963349;28;20053;-88
2024/01/17 04:58:33;;;;;;;7.90;3.95;;;;;;;-3.81;100.00;99426.69;4991857;28;20030;-88
2024/01/17 05:00:59;;;;;;;6.57;4.60;;;;;;;-3.73;100.00;99432.59;4978529;28;20029;-87
2024/01/17 05:03:25;;;;;;;6.93;4.10;;;;;;;-3.78;100.00;99417.69;4958961;28;20073;-87
2024/01/17 05:05:51;;;;;;;6.43;4.00;;;;;;;-3.83;100.00;99427.72;4975784;28;20551;-86
2024/01/17 05:08:18;;;;;;;6.47;3.97;;;;;;;-3.79;100.00;99413.25;4978291;28;20501;-91
2024/01/17 05:10:44;;;;;;;6.20;3.92;;;;;;;-3.78;100.00;99407.84;4978172;28;20049;-86
2024/01/17 05:13:12;;;;;;;8.52;4.38;;;;;;;-3.84;100.00;99404.59;4993440;28;20539;-85
2024/01/17 05:15:40;;;;;;;5.80;4.15;;;;;;;-3.76;100.00;99394.41;4977508;28;20373;-86
2024/01/17 05:18:09;;;;;;;6.78;5.00;;;;;;;-3.76;100.00;99386.41;4977965;28;20030;-86
2024/01/17 05:20:35;;;;;;;10.32;4.88;;;;;;;-3.69;100.00;99382.50;4993677;28;20037;-87
2024/01/17 05:23:02;;;;;;;7.13;4.63;;;;;;;-3.84;100.00;99392.06;4994509;28;20038;-86
2024/01/17 05:25:31;;;;;;;9.55;4.97;;;;;;;-3.85;100.00;99381.44;4994384;28;20022;-90
2024/01/17 05:27:58;;;;;;;7.60;4.97;;;;;;;-3.84;100.00;99373.34;4994371;28;20040;-86
2024/01/17 05:30:25;;;;;;;10.43;4.90;;;;;;;-3.80;100.00;99366.97;4977588;28;20030;-86
2024/01/17 05:32:51;;;;;;;5.13;4.60;;;;;;;-3.97;100.00;99367.69;4993469;28;20032;-87
2024/01/17 05:35:17;;;;;;;7.35;4.97;;;;;;;-3.83;100.00;99382.28;4977499;28;20037;-87
2024/01/17 05:37:43;;;;;;;8.00;5.10;;;;;;;-3.83;100.00;99375.09;4993997;28;20026;-87
2024/01/17 05:40:10;;;;;;;10.93;5.28;;;;;;;-3.75;100.00;99364.94;4994242;28;20142;-90
2024/01/17 05:42:37;;;;;;;6.63;5.35;;;;;;;-3.77;100.00;99355.22;4962365;28;20037;-88
2024/01/17 05:45:05;;;;;;;8.05;4.97;;;;;;;-3.74;100.00;99357.78;4978144;28;20369;-90
2024/01/17 05:47:33;;;;;;;9.00;4.85;;;;;;;-3.68;100.00;99365.53;4978996;28;20053;-89
2024/01/17 05:49:59;;;;;;;5.85;4.47;;;;;;;-3.60;100.00;99350.00;4962846;28;20509;-88
2024/01/17 05:52:25;;;;;;;5.47;4.28;;;;;;;-3.78;100.00;99342.81;4979227;28;20487;-90
2024/01/17 05:54:50;;;;;;;6.43;4.60;;;;;;;-3.91;100.00;99335.34;4973741;28;20034;-88
2024/01/17 05:57:16;;;;;;;8.55;4.47;;;;;;;-3.90;100.00;99334.41;4981859;28;20035;-89
2024/01/17 05:59:42;;;;;;;6.47;4.03;;;;;;;-3.90;100.00;99325.53;4979559;28;20087;-90
2024/01/17 06:02:07;;;;;;;6.10;4.10;;;;;;;-3.93;100.00;99328.34;4962589;28;20030;-90
2024/01/17 06:04:33;;;;;;;9.35;4.43;;;;;;;-3.91;100.00;99318.44;4962101;28;20030;-89
2024/01/17 06:06:59;;;;;;;7.47;3.95;;;;;;;-3.90;100.00;99318.38;4962186;28;20069;-89
2024/01/17 06:09:25;;;;;;;10.73;3.58;;;;;;;-3.94;100.00;99314.09;4978133;28;20031;-90
2024/01/17 06:11:50;;;;;;;8.52;3.67;;;;;;;-3.91;100.00;99319.28;4977861;28;20049;-89
2024/01/17 06:14:16;;;;;;;6.20;3.90;;;;;;;-3.91;100.00;99315.75;4978198;28;20388;-90
2024/01/17 06:16:41;;;;;;;7.25;4.22;;;;;;;-3.95;100.00;99307.03;4977335;28;20156;-90
2024/01/17 06:19:07;;;;;;;5.38;3.83;;;;;;;-3.81;100.00;99310.88;4962001;28;20067;-90
2024/01/17 06:21:32;;;;;;;7.57;3.75;;;;;;;-3.88;100.00;99294.25;4977944;28;20034;-90
2024/01/17 06:23:58;;;;;;;7.63;3.70;;;;;;;-3.89;100.00;99301.41;4962044;28;20026;-90
2024/01/17 06:26:23;;;;;;;8.35;3.75;;;;;;;-3.90;100.00;99305.00;4979089;28;20499;-91
2024/01/17 06:28:49;;;;;;;5.60;3.65;;;;;;;-3.92;100.00;99295.31;4998147;28;20468;-90
2024/01/17 06:31:25;;;;;;;6.30;3.40;;;;;;;-3.97;100.00;99287.47;4983157;28;20034;-89
2024/01/17 06:33:53;;;;;;;5.35;3.50;;;;;;;-4.02;100.00;99283.31;4989010;28;20030;-90
2024/01/17 06:36:19;;;;;;;8.57;3.63;;;;;;;-3.84;100.00;99286.94;4994565;28;20026;-90
2024/01/17 06:38:45;;;;;;;5.47;3.42;;;;;;;-3.96;100.00;99281.22;4978078;28;20149;-89
2024/01/17 06:41:10;;;;;;;6.88;3.78;;;;;;;-3.94;100.00;99279.34;4993606;28;20026;-89
2024/01/17 06:43:36;;;;;;;8.50;3.75;;;;;;;-3.89;100.00;99280.03;4977575;28;20034;-89
2024/01/17 06:46:03;;;;;;;5.30;3.35;;;;;;;-3.79;100.00;99276.91;4977294;28;20031;-89
2024/01/17 06:48:29;;;;;;;12.13;4.47;;;;;;;-3.79;100.00;99279.56;4961223;28;20035;-89
2024/01/17 06:50:55;;;;;;;5.75;3.40;;;;;;;-3.92;100.00;99268.56;4962402;28;20037;-89
2024/01/17 06:53:21;;;;;;;7.97;3.78;;;;;;;-3.96;100.00;99269.66;4961807;28;20062;-90
2024/01/17 06:55:47;;;;;;;4.95;3.42;;;;;;;-4.10;100.00;99259.59;4961481;28;20034;-89
2024/01/17 06:58:13;;;;;;;5.78;3.55;;;;;;;-3.95;100.00;99260.69;4976663;28;20083;-89
2024/01/17 07:00:38;;;;;;;7.38;3.50;;;;;;;-3.95;100.00;99252.66;4976926;28;20536;-87
2024/01/17 07:03:04;;;;;;;6.85;3.88;;;;;;;-3.93;100.00;99248.16;4975750;28;20031;-87
2024/01/17 07:05:33;;;;;;;6.45;3.50;;;;;;;-3.90;100.00;99245.34;4993755;28;20040;-88
2024/01/17 07:07:59;;;;;;;6.55;3.17;;;;;;;-3.81;100.00;99239.53;4977051;28;20026;-89
2024/01/17 07:10:24;;;;;;;7.47;3.78;;;;;;;-3.93;100.00;99234.78;4993263;28;20032;-89
2024/01/17 07:12:52;;;;;;;6.97;4.22;;;;;;;-3.85;100.00;99237.06;4964020;28;20034;-89
2024/01/17 07:15:18;;;;;;;8.95;5.13;;;;;;;-3.93;100.00;99238.31;4981411;28;20064;-89
2024/01/17 07:17:43;;;;;;;6.72;3.85;;;;;;;-3.88;100.00;99220.25;4964245;28;20030;-90
2024/01/17 07:20:13;;;;;;;5.00;3.20;;;;;;;-3.81;100.00;99215.47;4999337;28;20061;-91
2024/01/17 07:22:55;;;;;;;7.32;3.72;;;;;;;-3.75;100.00;99206.31;4999098;28;20423;-89
2024/01/17 07:25:21;;;;;;;5.97;4.10;;;;;;;-3.76;100.00;99199.22;4977867;28;20040;-92
2024/01/17 07:27:47;;;;;;;4.72;3.28;;;;;;;-3.72;100.00;99192.81;4976555;28;20541;-90
2024/01/17 07:30:14;;;;;;;5.88;3.38;;;;;;;-3.83;100.00;99174.59;4992853;28;20030;-87
2024/01/17 07:32:41;;;;;;;9.85;4.40;;;;;;;-3.74;100.00;99175.94;4975648;28;20034;-87
2024/01/17 07:35:06;;;;;;;5.72;3.90;;;;;;;-3.78;100.00;99185.06;4975779;28;20038;-91
2024/01/17 07:37:34;;;;;;;8.65;4.10;;;;;;;-3.78;100.00;99174.38;4977898;28;20121;-94
2024/01/17 07:40:01;;;;;;;7.75;5.28;;;;;;;-3.78;100.00;99169.88;4977805;28;20062;-90
2024/01/17 07:42:26;;;;;;;8.50;3.60;;;;;;;-3.78;100.00;99174.38;4978384;28;20034;-90
2024/01/17 07:44:52;;;;;;;8.18;3.90;;;;;;;-3.78;100.00;99163.69;4960886;28;20039;-91
2024/01/17 07:47:17;;;;;;;4.10;3.25;;;;;;;-3.72;100.00;99152.69;4976789;28;20042;-93
2024/01/17 07:49:45;;;;;;;10.73;3.85;;;;;;;-3.80;100.00;99142.38;4963113;28;20030;-92
2024/01/17 07:52:11;;;;;;;8.68;3.75;;;;;;;-3.70;100.00;99140.13;4978215;28;20053;-91
2024/01/17 07:54:37;;;;;;;8.05;3.80;;;;;;;-3.76;100.00;99135.91;4962448;28;20030;-92
2024/01/17 07:57:03;;;;;;;6.80;4.20;;;;;;;-3.74;100.00;99125.16;4978846;28;20385;-91
2024/01/17 07:59:29;;;;;;;8.00;4.10;;;;;;;-3.84;100.00;99110.50;5011304;28;20025;-90
2024/01/17 08:01:55;;;;;;;10.43;4.32;;;;;;;-3.72;100.00;99116.13;5003214;28;20102;-89
2024/01/17 08:04:21;;;;;;;7.22;4.07;;;;;;;-3.76;100.00;99100.28;4993808;28;20030;-88
2024/01/17 08:06:47;;;;;;;9.43;4.22;;;;;;;-3.63;100.00;99101.41;4980234;28;20050;-94
2024/01/17 08:09:22;;;;;;;3.53;3.22;;;;;;;-3.68;100.00;99098.13;4997806;28;20545;-91
2024/01/17 08:11:49;;;;;;;9.48;4.05;;;;;;;-3.64;100.00;99090.81;5001144;28;20029;-89
2024/01/17 08:14:15;;;;;;;6.32;3.83;;;;;;;-3.55;100.00;99090.34;4976452;28;20026;-89
2024/01/17 08:16:40;;;;;;;8.32;3.85;;;;;;;-3.55;100.00;99093.88;4991878;28;20034;-90
2024/01/17 08:19:06;;;;;;;9.18;4.75;;;;;;;-3.53;100.00;99096.47;4975898;28;20080;-89
2024/01/17 08:21:31;;;;;;;7.65;3.78;;;;;;;-3.47;100.00;99098.84;4975945;28;20126;-89
2024/01/17 08:23:59;;;;;;;6.38;3.90;;;;;;;-3.43;100.00;99089.72;4975873;28;20130;-89
2024/01/17 08:26:25;;;;;;;9.70;4.43;;;;;;;-3.35;100.00;99087.53;4960359;28;20054;-89
2024/01/17 08:28:54;;;;;;;8.23;4.43;;;;;;;-3.39;100.00;99088.63;4960262;28;20063;-89
2024/01/17 08:31:22;;;;;;;7.65;4.13;;;;;;;-3.30;100.00;99084.63;4976719;28;20034;-90
2024/01/17 08:33:49;;;;;;;7.47;3.42;;;;;;;-3.19;100.00;99082.25;4960913;28;20042;-89
2024/01/17 08:36:14;;;;;;;9.13;4.43;;;;;;;-3.21;100.00;99075.28;4977069;28;20030;-90
2024/01/17 08:38:40;;;;;;;7.50;4.28;;;;;;;-3.17;100.00;99075.00;4961249;28;20555;-91
2024/01/17 08:41:06;;;;;;;9.45;3.72;;;;;;;-3.05;100.00;99069.97;4961229;28;20042;-89
2024/01/17 08:43:31;;;;;;;8.57;4.20;;;;;;;-3.04;100.00;99069.03;4975859;28;20031;-90
2024/01/17 08:45:57;;;;;;;7.47;4.40;;;;;;;-3.03;100.00;99060.94;4975788;28;20026;-90
2024/01/17 08:48:22;;;;;;;9.57;4.32;;;;;;;-3.07;100.00;99048.63;4975490;28;20368;-91
2024/01/17 08:50:48;;;;;;;7.45;4.07;;;;;;;-2.98;100.00;99058.00;4991749;28;20029;-90
2024/01/17 08:53:19;;;;;;;8.90;4.80;;;;;;;-3.00;100.00;99043.81;4959795;28;20505;-93
2024/01/17 08:55:45;;;;;;;8.23;4.15;;;;;;;-2.97;100.00;99040.97;4992426;28;20034;-92
2024/01/17 08:58:11;;;;;;;8.50;4.00;;;;;;;-2.96;100.00;99032.88;4992671;28;20030;-92
2024/01/17 09:00:36;;;;;;;8.32;4.22;;;;;;;-2.90;100.00;99030.81;4975827;28;20132;-91
2024/01/17 09:03:02;;;;;;;6.50;4.18;;;;;;;-2.91;100.00;99008.53;4959626;28;20026;-91
2024/01/17 09:05:27;;;;;;;12.70;4.30;;;;;;;-2.93;100.00;99012.25;4975555;28;20031;-90
2024/01/17 09:07:53;;;;;;;6.60;4.05;;;;;;;-2.83;100.00;99003.63;4959558;28;20029;-90
2024/01/17 09:10:19;;;;;;;9.15;4.32;;;;;;;-2.78;100.00;99008.75;4975809;28;20031;-90
2024/01/17 09:12:45;;;;;;;6.90;4.32;;;;;;;-2.79;100.00;99007.88;4960738;28;20033;-94
2024/01/17 09:15:10;;;;;;;7.88;4.63;;;;;;;-2.79;100.00;99010.56;4960482;28;20450;-93
2024/01/17 09:17:38;;;;;;;10.88;4.63;;;;;;;-2.76;100.00;99004.16;4976454;28;20369;-92
2024/01/17 09:20:06;;;;;;;6.13;4.57;;;;;;;-2.78;100.00;98992.66;4976666;28;20079;-93
2024/01/17 09:22:32;;;;;;;5.75;4.55;;;;;;;-2.75;100.00;99002.34;4960214;28;20038;-91
2024/01/17 09:25:00;;;;;;;12.82;5.00;;;;;;;-2.70;100.00;98997.63;4960069;28;20526;-91
2024/01/17 09:27:26;;;;;;;9.15;5.45;;;;;;;-2.72;100.00;99002.16;4993097;28;20019;-91
2024/01/17 09:29:51;;;;;;;9.55;4.55;;;;;;;-2.69;100.00;98996.66;4976462;28;20044;-91
2024/01/17 09:32:17;;;;;;;6.40;4.55;;;;;;;-2.68;100.00;98985.84;4976219;28;20062;-92
2024/01/17 09:34:44;;;;;;;9.73;4.70;;;;;;;-2.70;100.00;98966.34;4960145;28;20085;-91
2024/01/17 09:37:10;;;;;;;10.55;5.13;;;;;;;-2.66;100.00;98969.69;4992717;28;20036;-92
2024/01/17 09:39:36;;;;;;;9.80;4.82;;;;;;;-2.62;100.00;98980.16;4959411;28;20058;-90
2024/01/17 09:42:05;;;;;;;8.40;5.32;;;;;;;-2.56;100.00;98991.47;4975722;28;20092;-90
2024/01/17 09:44:30;;;;;;;9.25;5.47;;;;;;;-2.68;100.00;98974.28;4997142;28;20082;-92
2024/01/17 09:47:00;;;;;;;7.47;4.18;;;;;;;-2.51;100.00;98986.72;4976884;28;20026;-91
2024/01/17 09:49:28;;;;;;;11.70;5.93;;;;;;;-2.46;100.00;98981.97;4997147;28;20030;-91
2024/01/17 09:51:54;;;;;;;10.30;5.15;;;;;;;-2.50;100.00;98975.94;4977365;28;20033;-92
2024/01/17 09:54:26;;;;;;;8.23;5.20;;;;;;;-2.52;100.00;98969.81;4995078;28;20030;-91
2024/01/17 09:56:55;;;;;;;7.90;5.10;;;;;;;-2.43;100.00;98971.97;4980559;28;20030;-92
2024/01/17 09:59:28;;;;;;;7.85;5.20;;;;;;;-2.33;100.00;98966.06;4995566;28;20058;-91
2024/01/17 10:01:56;;;;;;;13.07;5.65;;;;;;;-2.27;100.00;98957.69;4994960;28;20022;-90
2024/01/17 10:04:26;;;;;;;8.73;5.07;;;;;;;-2.28;100.00;98964.00;4978936;28;20050;-93
2024/01/17 10:06:55;;;;;;;11.98;6.15;;;;;;;-2.31;100.00;98954.34;4998221;28;20026;-91
2024/01/17 10:09:26;;;;;;;8.73;5.18;;;;;;;-2.28;100.00;98948.81;4982235;28;20026;-92
2024/01/17 10:11:52;;;;;;;8.00;5.82;;;;;;;-2.23;100.00;98954.75;4969636;28;20060;-91
2024/01/17 10:14:20;;;;;;;9.85;5.60;;;;;;;-2.12;100.00;98950.59;5004788;28;20041;-89
2024/01/17 10:16:46;;;;;;;11.35;5.50;;;;;;;-2.24;100.00;98957.53;4990560;28;20042;-91
2024/01/17 10:19:11;;;;;;;9.57;5.78;;;;;;;-2.19;100.00;98943.84;5003255;28;20148;-91
2024/01/17 10:21:37;;;;;;;13.80;6.15;;;;;;;-2.07;100.00;98948.50;4972178;28;20490;-93
2024/01/17 10:24:06;;;;;;;7.95;5.57;;;;;;;-2.10;100.00;98938.81;4989378;28;20164;-92
2024/01/17 10:26:32;;;;;;;8.68;5.10;;;;;;;-2.13;100.00;98922.91;4986025;28;20034;-92
2024/01/17 10:28:58;;;;;;;12.48;6.05;;;;;;;-2.05;100.00;98930.50;4962478;28;20031;-89
2024/01/17 10:31:24;;;;;;;8.68;5.53;;;;;;;-1.98;100.00;98941.72;4987119;28;20034;-91
2024/01/17 10:33:51;;;;;;;10.63;5.60;;;;;;;-1.94;100.00;98929.88;4974428;28;20062;-89
2024/01/17 10:36:17;;;;;;;10.88;5.47;;;;;;;-1.92;100.00;98919.91;4991607;28;20093;-91
2024/01/17 10:38:42;;;;;;;9.50;5.97;;;;;;;-1.97;100.00;98930.06;4989643;28;20096;-92
2024/01/17 10:41:08;;;;;;;11.75;6.30;;;;;;;-1.83;100.00;98919.38;4972623;28;20099;-91
2024/01/17 10:44:00;;;;;;;10.05;5.40;;;;;;;-1.90;100.00;98916.19;4985014;28;20026;-92
2024/01/17 10:46:26;;;;;;;10.13;6.10;;;;;;;-1.82;100.00;98914.88;5007056;28;20036;-91
2024/01/17 10:48:51;;;;;;;8.05;5.65;;;;;;;-1.86;100.00;98912.38;4992513;28;20564;-92
2024/01/17 10:51:22;;;;;;;11.23;5.88;;;;;;;-1.73;100.00;98908.97;4991373;28;20384;-93
2024/01/17 10:53:49;;;;;;;8.60;6.05;;;;;;;-1.78;100.00;98890.44;5008477;28;20034;-94
2024/01/17 10:56:20;;;;;;;9.15;5.82;;;;;;;-1.81;100.00;98892.47;4968852;28;20046;-91
2024/01/17 10:58:51;;;;;;;17.23;7.10;;;;;;;-1.84;100.00;98882.78;4982913;28;20051;-93
2024/01/17 11:01:25;;;;;;;8.27;5.93;;;;;;;-1.76;100.00;98893.91;4995526;28;20035;-93
2024/01/17 11:03:55;;;;;;;12.18;6.50;;;;;;;-1.74;100.00;98878.59;4995038;28;20389;-93
2024/01/17 11:06:21;;;;;;;10.02;6.13;;;;;;;-1.82;100.00;98870.16;4994613;28;20035;-89
2024/01/17 11:08:49;;;;;;;10.55;5.80;;;;;;;-1.81;100.00;98871.84;4962017;28;20034;-94
2024/01/17 11:11:16;;;;;;;9.45;5.70;;;;;;;-1.72;100.00;98865.94;4994492;28;20026;-93
2024/01/17 11:13:46;;;;;;;8.88;5.45;;;;;;;-1.67;100.00;98857.63;4979609;28;20411;-95
2024/01/17 11:16:13;;;;;;;8.20;5.55;;;;;;;-1.62;100.00;98858.19;4995501;28;20026;-90
2024/01/17 11:18:41;;;;;;;10.93;6.38;;;;;;;-1.64;100.00;98869.97;4977512;28;20097;-90
2024/01/17 11:21:07;;;;;;;8.95;6.20;;;;;;;-1.62;100.00;98868.03;4964124;28;20030;-91